Weather observations for the past three days for
Westfield, Barnes Municipal Airport
| Date | Time (edt) | Wind (mph) | Vis. (mi.) | Weather | Sky Cond. | Temperature (ºF) | Relative Humidity | Wind Chill (°F) | Heat Index (°F) | Pressure | Precipitation (in) | ||||||
|---|---|---|---|---|---|---|---|---|---|---|---|---|---|---|---|---|---|
| Air | Dwpt | 6 hour | altimeter (in) | sea level (mb) | 1 hr | 3 hr | 6 hr | ||||||||||
| Max. | Min. | ||||||||||||||||
| 03 | 02:53 | S 5 | 10.00 | Overcast | OVC013 | 61 | 60.1 | 97% | 30 | 1015.9 | 0.04 | ||||||
| 03 | 01:53 | SE 5 | 7.00 | Rain | BKN019 OVC070 | 62.1 | 60.1 | 68 | 62.1 | 93% | 30.03 | 1016.7 | 0.05 | 0.05 | |||
| 03 | 00:53 | SE 5 | 10.00 | Light Rain | OVC021 | 64 | 60.1 | 87% | 30.06 | 1017.8 | |||||||
| 02 | 23:53 | S 5 | 10.00 | Overcast | OVC041 | 64.9 | 60.1 | 84% | 30.07 | 1018.2 | |||||||
| 02 | 22:53 | S 5 | 10.00 | Overcast | OVC046 | 64.9 | 60.1 | 84% | 30.07 | 1018.2 | |||||||
| 02 | 21:53 | S 3 | 10.00 | Overcast | OVC060 | 64.9 | 61 | 87% | 30.11 | 1019.6 | |||||||
| 02 | 20:53 | S 5 | 10.00 | Mostly Cloudy | FEW050 BKN060 | 66 | 60.1 | 81% | 30.09 | 1018.7 | |||||||
| 02 | 19:53 | S 5 | 10.00 | Overcast | BKN050 OVC060 | 68 | 62.1 | 72 | 68 | 81% | 30.1 | 1019.1 | |||||
| 02 | 18:53 | Calm | 10.00 | Overcast | FEW032 BKN050 OVC065 | 69.1 | 64.9 | 87% | 30.13 | 1020.1 | |||||||
| 02 | 17:53 | Calm | 10.00 | Overcast | SCT036 OVC049 | 71.1 | 62.1 | 73% | 30.12 | 1019.9 | |||||||
| 02 | 16:53 | Calm | 10.00 | Overcast | OVC049 | 71.1 | 60.1 | 68% | 30.11 | 1019.6 | |||||||
| 02 | 15:53 | Vrbl 5 | 10.00 | Overcast | OVC048 | 71.1 | 61 | 71% | 30.12 | 1020.0 | |||||||
| 02 | 14:53 | S 5 | 10.00 | Overcast | OVC048 | 72 | 59 | 64% | 30.14 | 1020.5 | |||||||
| 02 | 13:53 | SE 3 | 10.00 | Overcast | FEW028 OVC050 | 72 | 57.9 | 73 | 62.1 | 61% | 30.14 | 1020.7 | |||||
| 02 | 12:53 | Vrbl 3 | 10.00 | Overcast | FEW024 OVC050 | 71.1 | 60.1 | 68% | 30.15 | 1020.9 | |||||||
| 02 | 11:53 | E 5 | 10.00 | Overcast | FEW020 OVC055 | 69.1 | 60.1 | 73% | 30.17 | 1021.4 | |||||||
| 02 | 10:53 | Calm | 10.00 | Overcast | SCT014 BKN047 OVC060 | 66.9 | 60.1 | 79% | 30.18 | 1022.1 | |||||||
| 02 | 09:53 | Calm | 10.00 | Overcast | BKN012 OVC042 | 64.9 | 61 | 87% | 30.18 | 1021.9 | |||||||
| 02 | 08:53 | N 3 | 10.00 | Overcast | SCT015 BKN043 OVC060 | 63 | 60.1 | 90% | 30.17 | 1021.5 | |||||||
| 02 | 07:53 | N 5 | 10.00 | Overcast | OVC049 | 62.1 | 60.1 | 62.1 | 61 | 93% | 30.17 | 1021.5 | |||||
| 02 | 06:53 | N 3 | 10.00 | Overcast | OVC039 | 61 | 60.1 | 97% | 30.17 | 1021.7 | |||||||
| 02 | 05:53 | N 5 | 10.00 | Overcast | OVC037 | 61 | 60.1 | 97% | 30.15 | 1021.1 | |||||||
| 02 | 04:53 | N 5 | 10.00 | Overcast | OVC038 | 61 | 60.1 | 97% | 30.13 | 1020.4 | |||||||
| 02 | 03:53 | N 3 | 10.00 | Overcast | OVC037 | 61 | 60.1 | 97% | 30.13 | 1020.3 | |||||||
| 02 | 02:53 | NE 5 | 10.00 | Overcast | OVC038 | 62.1 | 60.1 | 93% | 30.14 | 1020.5 | |||||||
| 02 | 01:53 | Calm | 10.00 | Overcast | SCT028 OVC035 | 62.1 | 60.1 | 63 | 62.1 | 93% | 30.13 | 1020.2 | |||||
| 02 | 00:53 | E 3 | 10.00 | Overcast | OVC008 | 62.1 | 60.1 | 93% | 30.12 | 1019.8 | |||||||
| 01 | 23:53 | Calm | 10.00 | Overcast | OVC010 | 62.1 | 61 | 96% | 30.11 | 1019.5 | |||||||
| 01 | 22:49 | Calm | 10.00 | Overcast | BKN009 OVC022 | 62.1 | 61 | 96% | 30.09 | 1018.7 | |||||||
| 01 | 21:53 | N 5 | 10.00 | Overcast | OVC009 | 62.1 | 61 | 96% | 30.09 | 1019.0 | |||||||
| 01 | 20:53 | N 3 | 10.00 | Overcast | OVC018 | 62.1 | 61 | 96% | 30.08 | 1018.6 | |||||||
| 01 | 19:53 | Calm | 10.00 | Overcast | FEW015 OVC021 | 62.1 | 60.1 | 66.9 | 62.1 | 93% | 30.07 | 1018.1 | 0.04 | ||||
| 01 | 18:53 | Calm | 10.00 | Light Rain | SCT010 BKN014 OVC019 | 62.1 | 60.1 | 93% | 30.07 | 1018.2 | |||||||
| 01 | 17:53 | SE 3 | 10.00 | Overcast | BKN010 OVC014 | 63 | 61 | 93% | 30.06 | 1017.7 | |||||||
| 01 | 15:53 | E 8 | 2.50 | Light Rain Fog/Mist | BKN008 BKN015 OVC020 | 64.9 | 64 | 97% | 30.02 | 1016.4 | |||||||
| 01 | 14:53 | NE 6 | 2.50 | Fog/Mist | OVC006 | 66.9 | 66 | 97% | 30.01 | 1016.0 | 0.02 | ||||||
| 01 | 12:53 | Vrbl 3 | 2.50 | Light Rain Fog/Mist | SCT008 BKN022 OVC060 | 66.9 | 66 | 97% | 29.99 | 1015.6 | 0.25 | ||||||
| 01 | 11:53 | SE 6 | 3.00 | Fog/Mist | OVC006 | 66.9 | 66 | 97% | 29.99 | 1015.6 | |||||||
| 01 | 10:53 | SE 6 | 3.00 | Fog/Mist | BKN007 OVC012 | 66.9 | 66 | 97% | 30.01 | 1016.1 | 0.02 | 0.25 | |||||
| 01 | 09:53 | NE 3 | 7.00 | Overcast | BKN007 OVC015 | 66 | 64.9 | 96% | 30.02 | 1016.6 | 0.05 | ||||||
| 01 | 08:53 | N 7 | 2.00 | Heavy Rain Fog/Mist | OVC005 | 66 | 66 | 100% | 30.03 | 1016.8 | 0.18 | ||||||
| 01 | 07:53 | Vrbl 3 | 6.00 | Light Rain Fog/Mist | BKN004 OVC011 | 66 | 64.9 | 66.9 | 66 | 96% | 30.01 | 1016.1 | 0.25 | 0.4 | |||
| 01 | 06:53 | E 3 | 2.50 | Rain Fog/Mist | OVC004 | 66 | 66 | 100% | 30.02 | 1016.2 | 0.08 | ||||||
| 01 | 05:53 | Calm | 4.00 | Light Rain Fog/Mist | OVC005 | 66 | 66 | 100% | 30 | 1015.8 | 0.01 | ||||||
| 01 | 04:53 | Calm | 3.00 | Light Rain Fog/Mist | OVC006 | 66 | 64.9 | 96% | 30.02 | 1016.4 | 0.05 | 0.06 | |||||
| 01 | 03:53 | Calm | 7.00 | Overcast | OVC007 | 66 | 64.9 | 96% | 30.03 | 1016.7 | 0.01 | ||||||
| 01 | 02:53 | Calm | 10.00 | Overcast | OVC010 | 66.9 | 64 | 91% | 30.04 | 1017.2 | |||||||
| 01 | 00:53 | S 7 | 10.00 | Overcast | OVC024 | 66.9 | 64 | 91% | 30.06 | 1017.8 | |||||||
| 31 | 23:53 | SE 3 | 8.00 | Light Rain | OVC032 | 66.9 | 63 | 87% | 30.06 | 1017.9 | |||||||
| 31 | 22:53 | S 6 | 10.00 | Overcast | OVC044 | 69.1 | 62.1 | 78% | 30.07 | 1018.0 | |||||||
| 31 | 21:53 | S 8 | 10.00 | Overcast | OVC050 | 69.1 | 62.1 | 78% | 30.06 | 1017.8 | |||||||
| 31 | 20:53 | S 5 | 10.00 | Overcast | OVC050 | 69.1 | 64.9 | 87% | 30.07 | 1018.2 | |||||||
| 31 | 19:53 | Calm | 10.00 | Overcast | SCT036 SCT050 OVC070 | 68 | 66 | 77 | 68 | 93% | 30.06 | 1017.9 | |||||
| 31 | 18:53 | SW 6 | 10.00 | Overcast | SCT039 BKN047 OVC055 | 73 | 63 | 71% | 30.07 | 1018.3 | |||||||
| 31 | 17:53 | Calm | 10.00 | Overcast | OVC055 | 73 | 64 | 74% | 30.08 | 1018.4 | |||||||
| 31 | 16:53 | SE 3 | 10.00 | Overcast | OVC049 | 73 | 63 | 71% | 30.07 | 1018.2 | |||||||
| 31 | 15:53 | SE 5 | 10.00 | Mostly Cloudy | BKN065 | 75.9 | 61 | 60% | 78 | 30.08 | 1018.6 | ||||||
| 31 | 14:53 | SE 5 | 10.00 | Mostly Cloudy | BKN065 | 75 | 60.1 | 60% | 77 | 30.1 | 1019.2 | ||||||
| 31 | 13:53 | SE 6 | 10.00 | Fair | CLR | 75 | 59 | 77 | 64 | 58% | 77 | 30.11 | 1019.3 | ||||
| 31 | 12:53 | SW 6 | 10.00 | A Few Clouds | FEW039 | 75.9 | 55.9 | 50% | 78 | 30.13 | 1020.1 | ||||||
| 31 | 11:53 | Calm | 10.00 | Fair | CLR | 73.9 | 60.1 | 62% | 30.15 | 1020.6 | |||||||
| 31 | 10:53 | Calm | 10.00 | Partly Cloudy | SCT030 | 73 | 61 | 66% | 30.14 | 1020.5 | |||||||
| 31 | 09:53 | Vrbl 3 | 10.00 | A Few Clouds | FEW030 | 72 | 61 | 68% | 30.14 | 1020.4 | |||||||
| 31 | 08:53 | N 5 | 10.00 | Fair | CLR | 68 | 61 | 78% | 30.14 | 1020.6 | |||||||
| 31 | 07:53 | Calm | 10.00 | Fair | CLR | 64 | 61 | 64 | 57.9 | 90% | 30.14 | 1020.5 | |||||
| 31 | 06:53 | Calm | 8.00 | Fair | CLR | 60.1 | 60.1 | 100% | 30.12 | 1019.7 | |||||||
| 31 | 05:53 | Calm | 10.00 | Fair | CLR | 59 | 59 | 100% | 30.1 | 1019.3 | |||||||
| 31 | 04:53 | Calm | 5.00 | Fog/Mist | CLR | 59 | 59 | 100% | 30.1 | 1019.0 | |||||||
| 31 | 03:53 | Calm | 3.00 | Fog/Mist | CLR | 59 | 59 | 100% | 30.09 | 1018.9 | |||||||
| Date | Time (edt) | Wind (mph) | Vis. (mi.) | Weather | Sky Cond. | Air | Dwpt | Max. | Min. | Relative Humidity | Wind Chill (°F) | Heat Index (°F) | altimeter (in) | sea level (mb) | 1 hr | 3 hr | 6 hr |
| 6 hour | |||||||||||||||||
| Temperature (ºF) | Pressure | Precipitation (in) | |||||||||||||||